createdAt,value
2023-02-28T00:01:26.946Z,10.73
2023-02-28T00:03:54.382Z,10.65
2023-02-28T00:06:22.228Z,10.60
2023-02-28T00:08:49.632Z,11.02
2023-02-28T00:11:18.103Z,11.63
2023-02-28T00:13:47.861Z,8.82
2023-02-28T00:16:21.675Z,12.48
2023-02-28T00:18:49.436Z,10.35
2023-02-28T00:21:18.136Z,10.63
2023-02-28T00:23:45.347Z,8.20
2023-02-28T00:26:12.832Z,10.52
2023-02-28T00:28:43.494Z,8.05
2023-02-28T00:31:10.866Z,9.30
2023-02-28T00:33:38.009Z,7.30
2023-02-28T00:36:08.735Z,9.23
2023-02-28T00:38:37.994Z,18.77
2023-02-28T00:41:05.888Z,12.40
2023-02-28T00:43:35.149Z,10.07
2023-02-28T00:46:03.727Z,9.75
2023-02-28T00:48:31.304Z,10.30
2023-02-28T00:50:58.905Z,7.82
2023-02-28T00:53:26.351Z,8.20
2023-02-28T00:55:54.127Z,12.82
2023-02-28T00:58:21.411Z,11.25
2023-02-28T01:00:50.277Z,8.35
2023-02-28T01:03:19.106Z,10.20
2023-02-28T01:05:46.915Z,9.35
2023-02-28T01:08:15.614Z,9.02
2023-02-28T01:10:43.362Z,8.40
2023-02-28T01:13:10.587Z,6.95
2023-02-28T01:15:39.201Z,8.25
2023-02-28T01:18:06.444Z,6.43
2023-02-28T01:20:34.248Z,9.48
2023-02-28T01:23:02.341Z,6.75
2023-02-28T01:25:29.914Z,8.57
2023-02-28T01:27:57.325Z,6.25
2023-02-28T01:30:26.756Z,7.93
2023-02-28T01:32:54.687Z,7.88
2023-02-28T01:35:21.797Z,7.40
2023-02-28T01:37:49.189Z,11.63
2023-02-28T01:40:16.293Z,10.00
2023-02-28T01:42:43.765Z,9.05
2023-02-28T01:45:31.218Z,10.48
2023-02-28T01:48:06.693Z,9.30
2023-02-28T01:50:39.956Z,10.07
2023-02-28T01:53:11.593Z,8.48
2023-02-28T01:55:40.660Z,8.73
2023-02-28T01:58:10.158Z,9.77
2023-02-28T02:00:37.913Z,8.68
2023-02-28T02:03:10.037Z,8.43
2023-02-28T02:05:39.542Z,10.23
2023-02-28T02:08:12.732Z,9.80
2023-02-28T02:10:42.466Z,9.45
2023-02-28T02:13:19.614Z,9.18
2023-02-28T02:16:26.955Z,8.00
2023-02-28T02:18:58.716Z,6.72
2023-02-28T02:22:05.633Z,10.00
2023-02-28T02:25:05.426Z,7.32
2023-02-28T02:28:14.386Z,9.98
2023-02-28T02:30:49.263Z,9.25
2023-02-28T02:33:38.474Z,8.10
2023-02-28T02:36:25.791Z,8.32
2023-02-28T02:39:06.878Z,6.53
2023-02-28T02:41:54.989Z,9.07
2023-02-28T02:44:29.297Z,9.73
2023-02-28T02:47:07.777Z,8.20
2023-02-28T02:49:37.837Z,8.85
2023-02-28T02:52:09.152Z,8.90
2023-02-28T02:54:41.697Z,10.02
2023-02-28T02:57:14.733Z,11.77
2023-02-28T02:59:43.209Z,9.90
2023-02-28T03:02:15.008Z,10.00
2023-02-28T03:04:50.015Z,8.95
2023-02-28T03:07:17.153Z,10.23
2023-02-28T03:10:00.256Z,9.43
2023-02-28T03:12:48.474Z,7.60
2023-02-28T03:15:28.574Z,9.52
2023-02-28T03:18:02.610Z,8.88
2023-02-28T03:20:42.801Z,5.95
2023-02-28T03:23:39.758Z,10.65
2023-02-28T03:26:20.596Z,8.57
2023-02-28T03:28:52.290Z,10.25
2023-02-28T03:31:22.905Z,9.45
2023-02-28T03:34:05.912Z,9.35
2023-02-28T03:36:45.017Z,10.90
2023-02-28T03:39:21.590Z,9.35
2023-02-28T03:41:56.500Z,9.13
2023-02-28T03:44:37.542Z,10.77
2023-02-28T03:47:12.166Z,9.93
2023-02-28T03:52:21.262Z,8.00
2023-02-28T03:54:56.011Z,7.18
2023-02-28T03:57:55.099Z,8.90
2023-02-28T04:00:29.945Z,8.32
2023-02-28T04:02:58.557Z,8.32
2023-02-28T04:05:27.900Z,8.43
2023-02-28T04:07:55.287Z,8.18
2023-02-28T04:10:22.626Z,7.68
2023-02-28T04:12:49.966Z,11.35
2023-02-28T04:15:17.213Z,8.95
2023-02-28T04:17:45.050Z,10.85
2023-02-28T04:20:13.108Z,10.50
2023-02-28T04:22:41.033Z,9.88
2023-02-28T04:25:08.748Z,9.32
2023-02-28T04:27:36.119Z,9.43
2023-02-28T04:30:03.324Z,9.63
2023-02-28T04:32:30.789Z,11.18
2023-02-28T04:34:57.894Z,10.70
2023-02-28T04:37:29.892Z,8.30
2023-02-28T04:39:57.102Z,10.20
2023-02-28T04:42:24.470Z,10.73
2023-02-28T04:44:51.634Z,9.07
2023-02-28T04:47:18.995Z,9.93
2023-02-28T04:49:46.184Z,10.65
2023-02-28T04:52:14.324Z,10.27
2023-02-28T04:54:41.497Z,9.30
2023-02-28T04:57:08.951Z,9.82
2023-02-28T04:59:36.215Z,7.15
2023-02-28T05:02:07.814Z,9.77
2023-02-28T05:04:35.752Z,8.43
2023-02-28T05:07:04.147Z,10.07
2023-02-28T05:09:31.339Z,9.50
2023-02-28T05:11:59.172Z,10.68
2023-02-28T05:14:26.650Z,13.63
2023-02-28T05:16:54.038Z,11.73
2023-02-28T05:19:22.455Z,13.02
2023-02-28T05:21:54.349Z,11.88
2023-02-28T05:24:24.639Z,12.88
2023-02-28T05:26:54.068Z,11.70
2023-02-28T05:29:21.861Z,12.63
2023-02-28T05:31:49.637Z,11.52
2023-02-28T05:34:17.172Z,10.05
2023-02-28T05:36:45.284Z,12.45
2023-02-28T05:39:14.301Z,14.13
2023-02-28T05:41:43.222Z,9.57
2023-02-28T05:44:11.714Z,16.83
2023-02-28T05:46:39.720Z,11.05
2023-02-28T05:49:06.915Z,12.25
2023-02-28T05:51:35.509Z,13.05
2023-02-28T05:54:03.066Z,14.57
2023-02-28T05:56:30.528Z,13.80
2023-02-28T05:58:57.742Z,14.73
2023-02-28T06:01:49.411Z,14.43
2023-02-28T06:04:31.131Z,13.63
2023-02-28T06:06:59.376Z,12.07
2023-02-28T06:09:26.488Z,13.15
2023-02-28T06:11:53.698Z,14.13
2023-02-28T06:14:21.636Z,16.58
2023-02-28T06:16:49.151Z,13.05
2023-02-28T06:19:16.687Z,12.20
2023-02-28T06:21:44.563Z,14.35
2023-02-28T06:24:11.939Z,13.10
2023-02-28T06:26:39.328Z,11.10
2023-02-28T06:29:06.506Z,10.80
2023-02-28T06:31:34.094Z,10.15
2023-02-28T06:34:01.474Z,12.75
2023-02-28T06:36:29.200Z,14.35
2023-02-28T06:38:57.229Z,10.93
2023-02-28T06:41:26.852Z,14.48
2023-02-28T06:43:54.539Z,11.18
2023-02-28T06:46:22.162Z,13.85
2023-02-28T06:48:49.467Z,10.82
2023-02-28T06:51:21.310Z,11.63
2023-02-28T06:53:48.509Z,14.02
2023-02-28T06:56:17.455Z,12.43
2023-02-28T06:58:49.683Z,13.52
2023-02-28T07:01:17.006Z,13.27
2023-02-28T07:03:44.415Z,10.80
2023-02-28T07:06:12.388Z,12.82
2023-02-28T07:08:41.180Z,13.90
2023-02-28T07:11:08.351Z,15.63
2023-02-28T07:13:36.286Z,15.70
2023-02-28T07:16:06.855Z,18.40
2023-02-28T07:18:34.489Z,15.40
2023-02-28T07:21:04.444Z,16.00
2023-02-28T07:23:32.086Z,15.88
2023-02-28T07:25:59.761Z,15.30
2023-02-28T07:28:27.146Z,17.35
2023-02-28T07:30:54.282Z,15.57
2023-02-28T07:33:21.456Z,13.93
2023-02-28T07:35:48.685Z,15.10
2023-02-28T07:38:16.521Z,12.93
2023-02-28T07:40:43.692Z,13.15
2023-02-28T07:43:11.677Z,14.35
2023-02-28T07:45:39.526Z,15.52
2023-02-28T07:48:06.726Z,15.45
2023-02-28T07:50:34.369Z,13.65
2023-02-28T07:53:01.657Z,14.52
2023-02-28T07:55:28.889Z,15.13
2023-02-28T07:57:57.643Z,14.90
2023-02-28T08:00:25.346Z,14.30
2023-02-28T08:02:52.507Z,15.95
2023-02-28T08:05:22.057Z,15.52
2023-02-28T08:07:50.942Z,16.00
2023-02-28T08:10:18.385Z,19.90
2023-02-28T08:12:45.869Z,17.25
2023-02-28T08:15:13.152Z,20.00
2023-02-28T08:17:40.720Z,19.45
2023-02-28T08:20:11.526Z,25.15
2023-02-28T08:22:38.587Z,21.23
2023-02-28T08:25:08.395Z,16.15
2023-02-28T08:27:36.176Z,18.98
2023-02-28T08:30:04.760Z,21.10
2023-02-28T08:32:34.379Z,17.65
2023-02-28T08:35:02.963Z,20.50
2023-02-28T08:37:31.703Z,23.58
2023-02-28T08:39:58.986Z,20.20
2023-02-28T08:42:26.721Z,20.13
2023-02-28T08:44:54.204Z,16.27
2023-02-28T08:47:21.915Z,20.33
2023-02-28T08:49:49.374Z,19.95
2023-02-28T08:52:16.602Z,18.60
2023-02-28T08:54:43.727Z,23.05
2023-02-28T08:57:11.189Z,18.00
2023-02-28T08:59:38.295Z,22.13
2023-02-28T09:02:05.867Z,21.92
2023-02-28T09:04:33.083Z,18.08
2023-02-28T09:07:00.541Z,18.67
2023-02-28T09:09:27.843Z,18.45
2023-02-28T09:11:57.333Z,19.02
2023-02-28T09:14:24.664Z,19.27
2023-02-28T09:16:52.349Z,24.23
2023-02-28T09:19:19.737Z,23.05
2023-02-28T09:21:47.076Z,21.30
2023-02-28T09:24:16.244Z,21.23
2023-02-28T09:26:56.567Z,22.00
2023-02-28T09:29:31.544Z,20.63
2023-02-28T09:31:59.920Z,18.95
2023-02-28T09:34:28.499Z,17.60
2023-02-28T09:36:56.255Z,20.27
2023-02-28T09:39:24.560Z,26.58
2023-02-28T09:41:55.872Z,19.48
2023-02-28T09:44:32.450Z,22.13
2023-02-28T09:47:22.966Z,21.98
2023-02-28T09:49:50.600Z,20.20
2023-02-28T09:52:24.576Z,21.30
2023-02-28T09:54:52.056Z,24.08
2023-02-28T09:57:43.683Z,21.67
2023-02-28T10:00:35.176Z,23.67
2023-02-28T10:03:04.041Z,21.30
2023-02-28T10:05:44.772Z,24.60
2023-02-28T10:08:15.587Z,22.45
2023-02-28T10:10:48.097Z,22.10
2023-02-28T10:13:21.620Z,20.35
2023-02-28T10:15:52.560Z,20.02
2023-02-28T10:18:26.509Z,20.77
2023-02-28T10:20:56.907Z,22.52
2023-02-28T10:23:30.004Z,20.92
2023-02-28T10:26:10.147Z,22.27
2023-02-28T10:28:37.473Z,24.38
2023-02-28T10:31:04.926Z,21.63
2023-02-28T10:33:36.150Z,23.27
2023-02-28T10:36:05.241Z,21.17
2023-02-28T10:38:37.769Z,19.98
2023-02-28T10:41:07.557Z,24.95
2023-02-28T10:43:35.416Z,20.23
2023-02-28T10:46:15.989Z,25.73
2023-02-28T10:48:46.312Z,25.65
2023-02-28T10:51:16.539Z,24.92
2023-02-28T10:54:00.121Z,22.98
2023-02-28T10:56:27.962Z,23.95
2023-02-28T10:58:59.098Z,23.17
2023-02-28T11:01:37.400Z,25.30
2023-02-28T11:04:05.178Z,22.80
2023-02-28T11:06:35.773Z,28.83
2023-02-28T11:09:07.311Z,29.25
2023-02-28T11:11:45.330Z,25.65
2023-02-28T11:14:31.470Z,24.90
2023-02-28T11:17:12.796Z,33.10
2023-02-28T11:19:45.439Z,30.98
2023-02-28T11:22:20.991Z,31.88
2023-02-28T11:24:54.316Z,31.40
2023-02-28T11:27:42.707Z,26.25
2023-02-28T11:30:24.735Z,31.27
2023-02-28T11:32:52.284Z,32.53
2023-02-28T11:35:27.567Z,28.80
2023-02-28T11:37:55.366Z,26.95
2023-02-28T11:40:32.676Z,28.65
2023-02-28T11:43:07.534Z,30.00
2023-02-28T11:46:14.599Z,28.80
2023-02-28T11:49:10.206Z,29.92
2023-02-28T11:52:04.411Z,29.75
2023-02-28T11:54:42.584Z,30.05
2023-02-28T11:57:29.918Z,29.88
2023-02-28T12:00:24.785Z,30.10
2023-02-28T12:02:59.372Z,30.42
2023-02-28T12:08:43.926Z,30.38
2023-02-28T12:11:46.723Z,32.30
2023-02-28T12:14:41.324Z,34.25
2023-02-28T12:17:29.736Z,32.65
2023-02-28T12:20:12.940Z,39.55
2023-02-28T12:22:47.405Z,35.03
2023-02-28T12:25:25.511Z,32.92
2023-02-28T12:27:54.351Z,29.45
2023-02-28T12:30:36.645Z,32.72
2023-02-28T12:33:10.809Z,28.90
2023-02-28T12:36:05.756Z,31.55
2023-02-28T12:38:40.661Z,32.25
2023-02-28T12:41:16.964Z,31.98
2023-02-28T12:43:51.332Z,28.27
2023-02-28T12:46:24.347Z,27.23
2023-02-28T12:48:56.660Z,40.15
2023-02-28T12:51:25.933Z,36.42
2023-02-28T12:54:13.647Z,33.05
2023-02-28T12:56:42.230Z,32.83
2023-02-28T12:59:16.655Z,29.48
2023-02-28T13:01:58.601Z,30.08
2023-02-28T13:04:30.611Z,32.13
2023-02-28T13:07:18.690Z,32.40
2023-02-28T13:10:03.535Z,29.88
2023-02-28T13:12:31.506Z,32.50
2023-02-28T13:15:17.406Z,36.10
2023-02-28T13:17:50.732Z,39.35
2023-02-28T13:20:22.581Z,29.48
2023-02-28T13:22:52.157Z,26.80
2023-02-28T13:25:26.915Z,26.60
2023-02-28T13:30:53.005Z,30.90
2023-02-28T13:33:25.636Z,29.42
2023-02-28T13:36:24.017Z,28.33
2023-02-28T13:38:56.359Z,26.70
2023-02-28T13:41:44.627Z,26.98
2023-02-28T13:44:15.748Z,30.27
2023-02-28T13:46:50.484Z,27.77
2023-02-28T13:49:26.267Z,25.08
2023-02-28T13:52:19.370Z,25.45
2023-02-28T13:55:17.214Z,25.98
2023-02-28T13:58:04.392Z,26.90
2023-02-28T14:00:36.009Z,24.20
2023-02-28T14:03:24.329Z,26.77
2023-02-28T14:06:27.462Z,24.25
2023-02-28T14:09:04.382Z,25.10
2023-02-28T14:11:33.867Z,33.47
2023-02-28T14:14:02.059Z,29.65
2023-02-28T14:16:40.910Z,25.88
2023-02-28T14:19:14.782Z,26.13
2023-02-28T14:21:49.310Z,26.85
2023-02-28T14:27:09.370Z,27.60
2023-02-28T14:29:43.738Z,26.95
2023-02-28T14:32:45.133Z,24.08
2023-02-28T14:35:43.588Z,24.63
2023-02-28T14:38:20.039Z,22.83
2023-02-28T14:40:48.881Z,24.58
2023-02-28T14:43:25.823Z,24.65
2023-02-28T14:45:59.279Z,25.17
2023-02-28T14:48:27.932Z,24.33
2023-02-28T14:50:59.707Z,24.65
2023-02-28T14:53:30.381Z,22.38
2023-02-28T14:55:57.593Z,27.23
2023-02-28T14:58:28.165Z,22.45
2023-02-28T15:00:58.692Z,27.15
2023-02-28T15:03:43.051Z,23.73
2023-02-28T15:06:18.536Z,22.70
2023-02-28T15:08:46.499Z,23.98
2023-02-28T15:11:22.287Z,24.27
2023-02-28T15:13:52.799Z,23.67
2023-02-28T15:16:26.889Z,23.13
2023-02-28T15:19:00.011Z,25.52
2023-02-28T15:21:34.947Z,23.02
2023-02-28T15:24:11.811Z,22.48
2023-02-28T15:26:43.443Z,21.42
2023-02-28T15:29:18.193Z,23.90
2023-02-28T15:31:57.477Z,24.92
2023-02-28T15:34:44.876Z,22.05
2023-02-28T15:37:33.260Z,23.33
2023-02-28T15:40:15.504Z,24.52
2023-02-28T15:42:44.968Z,24.92
2023-02-28T15:45:36.971Z,22.20
2023-02-28T15:48:13.582Z,22.63
2023-02-28T15:50:42.258Z,22.67
2023-02-28T15:53:29.570Z,22.88
2023-02-28T15:56:01.081Z,24.35
2023-02-28T15:58:29.093Z,24.08
2023-02-28T16:01:16.307Z,33.22
2023-02-28T16:03:49.605Z,30.35
2023-02-28T16:06:18.151Z,32.42
2023-02-28T16:08:46.586Z,26.63
2023-02-28T16:11:14.050Z,27.75
2023-02-28T16:13:42.163Z,23.70
2023-02-28T16:16:10.323Z,25.45
2023-02-28T16:18:37.743Z,25.17
2023-02-28T16:21:05.308Z,21.58
2023-02-28T16:23:32.448Z,22.92
2023-02-28T16:26:00.988Z,27.35
2023-02-28T16:28:33.534Z,24.13
2023-02-28T16:31:04.017Z,23.52
2023-02-28T16:33:32.830Z,20.95
2023-02-28T16:36:00.646Z,24.55
2023-02-28T16:38:27.918Z,22.98
2023-02-28T16:40:58.987Z,22.90
2023-02-28T16:43:28.003Z,23.23
2023-02-28T16:46:01.120Z,24.60
2023-02-28T16:48:28.772Z,29.15
2023-02-28T16:50:56.281Z,24.83
2023-02-28T16:53:23.361Z,24.52
2023-02-28T16:55:53.030Z,22.88
2023-02-28T16:58:23.048Z,22.27
2023-02-28T17:00:50.861Z,24.42
2023-02-28T17:03:33.009Z,24.55
2023-02-28T17:06:02.367Z,26.05
2023-02-28T17:08:30.993Z,25.30
2023-02-28T17:10:58.154Z,25.23
2023-02-28T17:13:25.535Z,29.05
2023-02-28T17:15:53.210Z,27.98
2023-02-28T17:18:22.198Z,26.15
2023-02-28T17:20:49.730Z,35.20
2023-02-28T17:23:17.565Z,29.17
2023-02-28T17:25:57.541Z,24.85
2023-02-28T17:28:25.644Z,29.45
2023-02-28T17:30:52.928Z,23.77
2023-02-28T17:33:20.140Z,24.00
2023-02-28T17:35:47.369Z,24.90
2023-02-28T17:38:18.094Z,22.88
2023-02-28T17:40:46.204Z,20.75
2023-02-28T17:43:13.382Z,22.52
2023-02-28T17:45:41.105Z,22.65
2023-02-28T17:48:12.342Z,23.67
2023-02-28T17:50:39.842Z,25.45
2023-02-28T17:53:07.537Z,23.42
2023-02-28T17:55:35.497Z,22.73
2023-02-28T17:58:04.106Z,23.27
2023-02-28T18:00:34.518Z,22.17
2023-02-28T18:03:01.972Z,24.63
2023-02-28T18:05:29.390Z,24.55
2023-02-28T18:07:57.471Z,24.23
2023-02-28T18:10:24.792Z,22.15
2023-02-28T18:12:52.917Z,22.70
2023-02-28T18:15:21.983Z,29.50
2023-02-28T18:17:49.959Z,29.33
2023-02-28T18:20:19.454Z,30.20
2023-02-28T18:22:47.760Z,29.13
2023-02-28T18:25:17.290Z,37.28
2023-02-28T18:27:54.430Z,31.17
2023-02-28T18:30:23.534Z,29.60
2023-02-28T18:32:51.100Z,25.00
2023-02-28T18:35:35.050Z,23.70
2023-02-28T18:38:05.747Z,18.33
2023-02-28T18:40:33.423Z,25.00
2023-02-28T18:43:01.139Z,25.58
2023-02-28T18:45:28.599Z,30.58
2023-02-28T18:47:56.015Z,34.58
2023-02-28T18:50:23.390Z,34.67
2023-02-28T18:52:51.520Z,29.30
2023-02-28T18:55:19.144Z,27.40
2023-02-28T18:57:47.836Z,27.77
2023-02-28T19:00:18.377Z,26.10
2023-02-28T19:02:45.919Z,26.00
2023-02-28T19:05:13.317Z,23.15
2023-02-28T19:07:41.063Z,28.67
2023-02-28T19:10:09.666Z,22.45
2023-02-28T19:12:38.469Z,25.25
2023-02-28T19:15:07.049Z,24.27
2023-02-28T19:17:34.498Z,24.33
2023-02-28T19:20:01.716Z,22.60
2023-02-28T19:22:28.998Z,21.98
2023-02-28T19:24:56.586Z,20.95
2023-02-28T19:27:24.179Z,20.85
2023-02-28T19:29:52.916Z,22.58
2023-02-28T19:32:21.217Z,22.75
2023-02-28T19:34:49.182Z,29.05
2023-02-28T19:37:17.016Z,30.85
2023-02-28T19:39:45.805Z,32.00
2023-02-28T19:42:16.459Z,25.80
2023-02-28T19:44:45.831Z,24.92
2023-02-28T19:47:13.282Z,24.77
2023-02-28T19:49:41.213Z,29.30
2023-02-28T19:52:13.251Z,27.63
2023-02-28T19:54:42.603Z,28.10
2023-02-28T19:57:09.787Z,30.45
2023-02-28T19:59:39.738Z,29.50
2023-02-28T20:02:15.336Z,30.38
2023-02-28T20:04:43.249Z,36.20
2023-02-28T20:07:10.922Z,35.90
2023-02-28T20:09:38.002Z,41.55
2023-02-28T20:12:09.306Z,43.47
2023-02-28T20:14:41.879Z,51.00
2023-02-28T20:17:09.066Z,42.35
2023-02-28T20:19:36.617Z,43.33
2023-02-28T20:22:04.259Z,43.03
2023-02-28T20:24:31.446Z,36.33
2023-02-28T20:26:58.714Z,30.95
2023-02-28T20:29:25.786Z,32.05
2023-02-28T20:31:53.538Z,29.20
2023-02-28T20:34:21.313Z,27.75
2023-02-28T20:36:48.441Z,27.63
2023-02-28T20:39:16.023Z,29.95
2023-02-28T20:41:43.157Z,28.70
2023-02-28T20:44:13.768Z,27.55
2023-02-28T20:46:43.286Z,33.28
2023-02-28T20:49:10.908Z,27.80
2023-02-28T20:51:40.210Z,27.02
2023-02-28T20:54:08.835Z,22.40
2023-02-28T20:56:36.355Z,28.17
2023-02-28T20:59:04.125Z,28.27
2023-02-28T21:01:31.734Z,31.20
2023-02-28T21:04:02.027Z,24.67
2023-02-28T21:06:33.539Z,29.50
2023-02-28T21:09:00.828Z,28.08
2023-02-28T21:11:30.287Z,26.60
2023-02-28T21:14:03.345Z,29.77
2023-02-28T21:16:31.008Z,29.67
2023-02-28T21:19:06.352Z,27.30
2023-02-28T21:21:38.429Z,27.45
2023-02-28T21:24:06.958Z,23.63
2023-02-28T21:26:34.196Z,21.95
2023-02-28T21:29:02.835Z,23.05
2023-02-28T21:31:32.710Z,25.20
2023-02-28T21:34:01.049Z,23.95
2023-02-28T21:36:32.942Z,24.23
2023-02-28T21:39:05.246Z,25.50
2023-02-28T21:41:32.502Z,29.75
2023-02-28T21:43:59.820Z,20.40
2023-02-28T21:46:29.110Z,24.60
2023-02-28T21:48:57.560Z,23.48
2023-02-28T21:51:28.376Z,24.08
2023-02-28T21:53:57.927Z,25.30
2023-02-28T21:56:28.593Z,24.17
2023-02-28T21:59:00.606Z,25.60
2023-02-28T22:01:37.719Z,28.08
2023-02-28T22:04:07.329Z,33.85
2023-02-28T22:06:37.140Z,30.23
2023-02-28T22:09:07.324Z,32.00
2023-02-28T22:11:36.491Z,31.75
2023-02-28T22:14:04.117Z,29.27
2023-02-28T22:16:44.100Z,30.42
2023-02-28T22:19:17.554Z,25.77
2023-02-28T22:21:45.847Z,27.33
2023-02-28T22:24:12.949Z,25.20
2023-02-28T22:26:40.149Z,24.83
2023-02-28T22:29:07.685Z,23.23
2023-02-28T22:31:36.227Z,25.02
2023-02-28T22:34:08.798Z,30.48
2023-02-28T22:36:36.631Z,27.25
2023-02-28T22:39:04.862Z,27.80
2023-02-28T22:41:32.868Z,24.33
2023-02-28T22:44:03.650Z,26.65
2023-02-28T22:46:33.094Z,29.77
2023-02-28T22:49:01.619Z,29.85
2023-02-28T22:51:29.895Z,27.33
2023-02-28T22:53:58.415Z,28.85
2023-02-28T22:56:27.768Z,28.00
2023-02-28T22:58:57.899Z,28.77
2023-02-28T23:01:27.072Z,28.98
2023-02-28T23:03:54.772Z,27.73
2023-02-28T23:06:23.316Z,27.58
2023-02-28T23:08:52.249Z,30.20
2023-02-28T23:11:25.425Z,30.42
2023-02-28T23:14:00.260Z,27.60
2023-02-28T23:16:48.607Z,35.65
2023-02-28T23:19:22.411Z,31.63
2023-02-28T23:21:49.885Z,32.92
2023-02-28T23:24:19.321Z,31.83
2023-02-28T23:26:49.382Z,31.98
2023-02-28T23:29:18.551Z,32.08
2023-02-28T23:31:45.975Z,31.77
2023-02-28T23:34:13.836Z,33.78
2023-02-28T23:36:46.381Z,31.92
2023-02-28T23:39:15.928Z,30.85
2023-02-28T23:41:43.595Z,36.08
2023-02-28T23:44:13.928Z,31.73
2023-02-28T23:46:41.522Z,32.88
2023-02-28T23:49:08.629Z,35.85
2023-02-28T23:51:35.985Z,34.33
2023-02-28T23:54:03.298Z,31.85
2023-02-28T23:56:31.282Z,35.95
2023-02-28T23:58:59.329Z,36.00
